Time;durP1;ratioP1;P1;durP2;ratioP2;P2;SDS_P1;SDS_P2;PMS_P1;PMS_P2;Temp;Humidity;BMP_temperature;BMP_pressure;BME280_temperature;BME280_humidity;BME280_pressure;Samples;Min_cycle;Max_cycle;Signal;HPM_P1;HPM_P2
2022/07/20 00:02:09;;;;;;;5.60;5.10;;;;;;;24.25;68.06;100045.41;4950783;28;20242;-75
2022/07/20 00:04:34;;;;;;;5.30;4.80;;;;;;;24.19;68.11;100037.00;4948155;28;20250;-76
2022/07/20 00:06:59;;;;;;;5.50;4.67;;;;;;;24.13;68.97;100040.06;4942010;29;20191;-75
2022/07/20 00:12:09;;;;;;;5.57;5.00;;;;;;;24.06;70.22;100044.06;4943807;29;20201;-75
2022/07/20 00:14:35;;;;;;;6.10;5.10;;;;;;;23.99;69.94;100041.00;4947366;29;20195;-74
2022/07/20 00:17:00;;;;;;;4.80;4.40;;;;;;;23.91;70.01;100048.59;4944621;28;20942;-75
2022/07/20 00:19:25;;;;;;;5.77;5.27;;;;;;;23.87;70.53;100044.47;4944338;28;20653;-75
2022/07/20 00:21:51;;;;;;;5.03;4.60;;;;;;;23.84;70.96;100048.16;4960304;28;20671;-75
2022/07/20 00:24:16;;;;;;;4.97;4.57;;;;;;;23.78;70.64;100040.66;4947219;28;20206;-75
2022/07/20 00:26:42;;;;;;;5.50;4.63;;;;;;;23.74;70.93;100044.47;4942417;29;20195;-75
2022/07/20 00:29:08;;;;;;;4.93;4.53;;;;;;;23.71;70.45;100044.69;4949004;28;20230;-74
2022/07/20 00:31:34;;;;;;;5.07;4.67;;;;;;;23.68;70.20;100048.34;4944810;28;20258;-75
2022/07/20 00:33:59;;;;;;;4.97;4.43;;;;;;;23.66;70.46;100049.41;4947099;28;20202;-75
2022/07/20 00:36:25;;;;;;;5.43;4.90;;;;;;;23.64;70.43;100048.69;4946493;28;20341;-77
2022/07/20 00:38:50;;;;;;;5.50;5.00;;;;;;;23.64;70.05;100049.53;4947616;28;20210;-76
2022/07/20 00:41:16;;;;;;;5.63;5.00;;;;;;;23.66;69.64;100054.72;4947357;29;20900;-75
2022/07/20 00:44:01;;;;;;;5.60;5.10;;;;;;;23.66;69.82;100049.41;4962441;28;20745;-75
2022/07/20 00:46:29;;;;;;;5.50;5.10;;;;;;;23.65;70.28;100045.09;4946067;29;20269;-75
2022/07/20 00:48:55;;;;;;;5.93;5.33;;;;;;;23.64;71.25;100046.03;4946249;28;20863;-75
2022/07/20 00:51:21;;;;;;;5.40;5.00;;;;;;;23.63;72.41;100044.34;4949786;28;20204;-75
2022/07/20 00:53:47;;;;;;;5.80;5.20;;;;;;;23.59;73.78;100049.84;4949197;28;20682;-75
2022/07/20 00:56:14;;;;;;;5.47;4.93;;;;;;;23.56;75.18;100052.69;4952199;28;20685;-75
2022/07/20 00:58:40;;;;;;;5.00;4.60;;;;;;;23.52;76.46;100051.19;4947833;28;20470;-75
2022/07/20 01:01:05;;;;;;;5.70;5.20;;;;;;;23.44;77.62;100049.06;4947426;28;20670;-75
2022/07/20 01:03:31;;;;;;;6.80;5.23;;;;;;;23.35;77.84;100044.41;4945258;28;20218;-75
2022/07/20 01:05:56;;;;;;;5.73;5.23;;;;;;;23.31;78.12;100040.28;4941563;28;20601;-75
2022/07/20 01:08:22;;;;;;;5.73;5.13;;;;;;;23.24;78.93;100042.50;4942161;28;20222;-77
2022/07/20 01:10:48;;;;;;;5.80;5.27;;;;;;;23.20;79.88;100041.00;4944560;29;20720;-76
2022/07/20 01:13:14;;;;;;;6.00;5.17;;;;;;;23.13;79.51;100037.88;4949139;29;20191;-76
2022/07/20 01:15:39;;;;;;;5.67;5.17;;;;;;;23.08;80.31;100033.84;4958165;28;20242;-75
2022/07/20 01:18:05;;;;;;;6.27;5.67;;;;;;;23.06;81.27;100035.75;4943664;28;20234;-75
2022/07/20 01:20:30;;;;;;;5.70;5.20;;;;;;;22.98;81.42;100052.06;4946799;28;20629;-76
2022/07/20 01:22:56;;;;;;;5.17;4.70;;;;;;;22.87;81.84;100044.00;4942359;28;20223;-76
2022/07/20 01:25:21;;;;;;;6.80;5.80;;;;;;;22.75;81.21;100040.38;4948240;29;20222;-76
2022/07/20 01:27:47;;;;;;;5.47;4.97;;;;;;;22.62;81.17;100040.28;4945660;28;20765;-75
2022/07/20 01:30:13;;;;;;;5.73;5.23;;;;;;;22.53;81.12;100045.22;4943677;28;20206;-75
2022/07/20 01:32:38;;;;;;;5.97;5.47;;;;;;;22.48;81.18;100049.09;4948318;29;20190;-75
2022/07/20 01:35:04;;;;;;;5.93;5.47;;;;;;;22.42;82.21;100045.06;4942558;28;20246;-75
2022/07/20 01:37:30;;;;;;;6.07;5.43;;;;;;;22.38;82.51;100048.78;4945877;28;20303;-75
2022/07/20 01:39:56;;;;;;;5.87;5.37;;;;;;;22.30;82.41;100053.69;4945470;28;20654;-75
2022/07/20 01:42:21;;;;;;;6.23;5.73;;;;;;;22.24;82.22;100060.16;4948865;29;20191;-74
2022/07/20 01:44:47;;;;;;;5.67;5.07;;;;;;;22.17;82.09;100066.78;4948272;28;20780;-77
2022/07/20 01:47:12;;;;;;;5.13;4.73;;;;;;;22.11;81.51;100057.47;4947082;28;20226;-74
2022/07/20 01:49:38;;;;;;;5.90;5.40;;;;;;;22.07;82.16;100058.56;4944620;28;20218;-75
2022/07/20 01:52:03;;;;;;;5.57;5.07;;;;;;;22.03;81.85;100064.97;4948447;28;20222;-76
2022/07/20 01:54:29;;;;;;;5.70;5.10;;;;;;;22.00;81.85;100067.81;4959532;28;20194;-77
2022/07/20 01:56:54;;;;;;;6.67;5.47;;;;;;;21.97;81.77;100068.00;4948361;28;20273;-75
2022/07/20 01:59:20;;;;;;;5.67;5.20;;;;;;;21.93;81.30;100069.97;4946218;28;20238;-75
2022/07/20 02:01:45;;;;;;;5.63;5.13;;;;;;;21.92;82.11;100063.00;4947683;28;20187;-75
2022/07/20 02:04:10;;;;;;;5.90;5.40;;;;;;;21.88;83.21;100070.22;4945528;28;20242;-77
2022/07/20 02:06:36;;;;;;;6.83;5.73;;;;;;;21.83;83.30;100077.56;4946967;28;20186;-76
2022/07/20 02:09:02;;;;;;;5.90;5.40;;;;;;;21.77;83.72;100068.25;4959363;28;20322;-75
2022/07/20 02:11:27;;;;;;;5.57;4.90;;;;;;;21.74;84.29;100072.81;4947868;28;20228;-76
2022/07/20 02:13:53;;;;;;;5.20;4.80;;;;;;;21.72;84.45;100074.69;4945144;28;21255;-75
2022/07/20 02:16:19;;;;;;;5.83;5.30;;;;;;;21.70;85.17;100072.16;4944535;28;20222;-75
2022/07/20 02:18:46;;;;;;;6.07;5.57;;;;;;;21.67;84.55;100080.25;4943629;28;20215;-75
2022/07/20 02:21:12;;;;;;;5.90;5.50;;;;;;;21.63;84.83;100081.34;4948081;28;20560;-75
2022/07/20 02:23:37;;;;;;;5.60;5.10;;;;;;;21.62;85.34;100083.16;4948556;28;20241;-76
2022/07/20 02:26:03;;;;;;;5.83;5.30;;;;;;;21.61;85.42;100088.53;4949159;28;20636;-74
2022/07/20 02:28:29;;;;;;;5.97;5.47;;;;;;;21.58;85.73;100084.22;4963717;28;20215;-75
2022/07/20 02:30:54;;;;;;;6.97;5.47;;;;;;;21.56;85.60;100082.63;4945695;28;20213;-77
2022/07/20 02:33:19;;;;;;;6.30;5.80;;;;;;;21.51;85.90;100087.31;4945969;28;20269;-75
2022/07/20 02:35:45;;;;;;;6.77;6.20;;;;;;;21.43;85.73;100088.63;4943368;28;20254;-76
2022/07/20 02:38:10;;;;;;;5.97;5.57;;;;;;;21.37;85.54;100077.59;4943213;28;20261;-76
2022/07/20 02:40:35;;;;;;;6.20;5.70;;;;;;;21.26;84.62;100073.78;4945324;28;20218;-76
2022/07/20 02:43:01;;;;;;;6.03;5.53;;;;;;;21.24;84.34;100074.81;4948360;29;20242;-76
2022/07/20 02:45:26;;;;;;;6.37;5.83;;;;;;;21.25;84.42;100069.44;4960652;28;20966;-76
2022/07/20 02:47:51;;;;;;;6.40;5.83;;;;;;;21.26;84.42;100072.94;4945224;28;20575;-76
2022/07/20 02:50:17;;;;;;;6.63;6.03;;;;;;;21.27;84.82;100072.00;4941570;28;20210;-74
2022/07/20 02:52:43;;;;;;;6.60;6.10;;;;;;;21.28;84.85;100071.91;4963473;28;20556;-75
2022/07/20 02:55:10;;;;;;;8.37;6.20;;;;;;;21.28;84.81;100066.66;4958881;28;20201;-74
2022/07/20 02:57:35;;;;;;;6.60;6.00;;;;;;;21.27;85.71;100064.94;4945195;28;20210;-76
2022/07/20 03:00:01;;;;;;;6.37;5.87;;;;;;;21.26;85.53;100072.94;4948016;28;20313;-75
2022/07/20 03:02:27;;;;;;;6.30;5.70;;;;;;;21.21;85.88;100065.31;4943075;28;20222;-75
2022/07/20 03:04:52;;;;;;;6.13;5.63;;;;;;;21.15;86.40;100073.53;4944797;28;20633;-75
2022/07/20 03:07:17;;;;;;;6.37;5.77;;;;;;;21.07;86.62;100075.78;4940427;28;20190;-76
2022/07/20 03:09:43;;;;;;;6.20;5.70;;;;;;;21.01;86.79;100079.59;4944223;28;20744;-74
2022/07/20 03:12:09;;;;;;;5.90;5.40;;;;;;;20.94;87.18;100081.72;4948102;29;20198;-75
2022/07/20 03:14:34;;;;;;;6.30;5.80;;;;;;;20.87;87.50;100080.34;4945692;28;20186;-75
2022/07/20 03:17:00;;;;;;;6.30;5.70;;;;;;;20.79;87.41;100093.94;4942198;28;20189;-76
2022/07/20 03:19:25;;;;;;;5.97;5.47;;;;;;;20.74;87.56;100089.84;4960712;28;20735;-75
2022/07/20 03:21:51;;;;;;;6.10;5.60;;;;;;;20.69;87.64;100108.50;4945181;28;20861;-75
2022/07/20 03:24:16;;;;;;;6.10;5.60;;;;;;;20.64;88.21;100100.84;4946915;29;20217;-75
2022/07/20 03:26:42;;;;;;;6.67;5.87;;;;;;;20.61;88.18;100100.16;4944093;28;20705;-75
2022/07/20 03:29:07;;;;;;;5.33;4.93;;;;;;;20.55;88.29;100090.81;4943121;28;20860;-74
2022/07/20 03:31:33;;;;;;;6.27;5.77;;;;;;;20.53;88.41;100092.69;4943991;29;20268;-76
2022/07/20 03:33:58;;;;;;;5.83;5.37;;;;;;;20.50;87.85;100095.47;4947526;28;20697;-76
2022/07/20 03:36:23;;;;;;;6.27;5.73;;;;;;;20.49;87.17;100097.25;4946860;28;20198;-75
2022/07/20 03:38:49;;;;;;;6.27;5.67;;;;;;;20.50;86.89;100096.34;4938644;29;20206;-75
2022/07/20 03:41:14;;;;;;;6.93;6.30;;;;;;;20.52;86.61;100104.13;4946837;28;20653;-75
2022/07/20 03:43:40;;;;;;;6.60;6.07;;;;;;;20.54;86.79;100100.50;4943960;29;20335;-75
2022/07/20 03:46:05;;;;;;;6.83;6.23;;;;;;;20.58;87.58;100109.06;4944660;28;20676;-76
2022/07/20 03:48:30;;;;;;;6.67;5.70;;;;;;;20.58;87.49;100106.44;4944427;28;20291;-77
2022/07/20 03:50:56;;;;;;;6.40;5.80;;;;;;;20.59;87.04;100102.00;4944075;28;20276;-76
2022/07/20 03:53:21;;;;;;;6.63;6.00;;;;;;;20.61;87.09;100110.66;4946964;28;20193;-76
2022/07/20 03:55:47;;;;;;;7.23;5.57;;;;;;;20.62;87.30;100107.97;4946577;28;20194;-75
2022/07/20 03:58:12;;;;;;;6.17;5.67;;;;;;;20.63;87.84;100116.69;4946806;28;20758;-76
2022/07/20 04:00:37;;;;;;;6.87;6.17;;;;;;;20.65;88.40;100106.94;4947355;29;20271;-75
2022/07/20 04:03:03;;;;;;;6.33;5.80;;;;;;;20.67;88.99;100105.09;4946920;28;20224;-75
2022/07/20 04:05:28;;;;;;;6.93;6.23;;;;;;;20.68;88.99;100115.50;4946285;28;20182;-75
2022/07/20 04:07:54;;;;;;;6.57;6.00;;;;;;;20.67;88.80;100116.44;4946939;28;20216;-76
2022/07/20 04:10:19;;;;;;;6.50;5.73;;;;;;;20.66;88.70;100120.00;4941063;28;20277;-75
2022/07/20 04:12:45;;;;;;;6.77;6.10;;;;;;;20.63;88.66;100120.19;4943299;28;20232;-75
2022/07/20 04:15:10;;;;;;;6.77;6.17;;;;;;;20.61;88.74;100122.06;4961272;28;20190;-75
2022/07/20 04:17:36;;;;;;;7.20;6.43;;;;;;;20.61;88.83;100127.31;4942422;28;20255;-78
2022/07/20 04:20:04;;;;;;;6.77;5.97;;;;;;;20.63;88.66;100124.59;4942246;28;20196;-75
2022/07/20 04:22:30;;;;;;;6.87;6.27;;;;;;;20.67;88.52;100136.66;4947039;28;20289;-76
2022/07/20 04:24:55;;;;;;;6.70;6.00;;;;;;;20.73;88.67;100141.56;4942313;28;20280;-76
2022/07/20 04:27:20;;;;;;;5.93;5.37;;;;;;;20.78;88.53;100144.00;4938118;28;20202;-77
2022/07/20 04:29:46;;;;;;;6.60;6.00;;;;;;;20.81;88.54;100149.06;4944237;28;20230;-75
2022/07/20 04:32:11;;;;;;;6.40;5.80;;;;;;;20.92;88.00;100137.97;4939985;28;20197;-76
2022/07/20 04:34:36;;;;;;;6.10;5.60;;;;;;;21.15;87.43;100155.97;4946907;28;20202;-75
2022/07/20 04:37:02;;;;;;;6.90;6.20;;;;;;;21.40;86.42;100154.59;4961855;28;20206;-76
2022/07/20 04:39:27;;;;;;;6.80;6.17;;;;;;;21.60;86.55;100160.56;4942189;28;20234;-76
2022/07/20 04:41:53;;;;;;;6.33;5.50;;;;;;;21.81;86.16;100173.41;4944203;28;20222;-76
2022/07/20 04:44:18;;;;;;;6.43;5.83;;;;;;;22.05;85.78;100185.16;4955994;28;20567;-76
2022/07/20 04:46:44;;;;;;;6.73;6.13;;;;;;;22.26;85.08;100176.91;4946423;28;20190;-77
2022/07/20 04:49:10;;;;;;;6.40;5.87;;;;;;;22.51;84.36;100176.31;4961747;28;20233;-77
2022/07/20 04:51:36;;;;;;;6.33;5.80;;;;;;;22.67;83.81;100180.66;4956157;28;20253;-77
2022/07/20 04:54:02;;;;;;;5.83;5.33;;;;;;;22.77;83.40;100186.22;4945735;28;20182;-77
2022/07/20 04:56:28;;;;;;;5.80;5.37;;;;;;;23.07;82.23;100188.69;4942814;28;20203;-76
2022/07/20 04:58:55;;;;;;;6.33;5.77;;;;;;;23.43;81.13;100176.78;4956453;28;20210;-76
2022/07/20 05:01:22;;;;;;;6.93;6.23;;;;;;;23.75;80.43;100178.25;4951623;28;20195;-77
2022/07/20 05:03:51;;;;;;;6.53;5.93;;;;;;;23.92;80.17;100178.91;4940203;28;20210;-76
2022/07/20 05:06:17;;;;;;;6.47;5.87;;;;;;;23.94;80.40;100177.88;4946839;28;20194;-76
2022/07/20 05:08:42;;;;;;;6.37;5.87;;;;;;;23.99;81.14;100175.78;4946449;28;20715;-76
2022/07/20 05:11:08;;;;;;;6.33;5.77;;;;;;;24.19;80.97;100178.91;4949384;28;20323;-76
2022/07/20 05:13:33;;;;;;;6.37;5.60;;;;;;;24.28;80.72;100172.97;4951703;28;20237;-76
2022/07/20 05:15:59;;;;;;;7.33;5.83;;;;;;;24.42;80.46;100163.25;4962649;28;20184;-76
2022/07/20 05:18:24;;;;;;;6.97;5.93;;;;;;;24.75;79.80;100167.16;4949028;28;20310;-76
2022/07/20 05:20:50;;;;;;;6.57;5.97;;;;;;;25.42;78.36;100163.28;4949482;28;20182;-76
2022/07/20 05:23:15;;;;;;;6.93;6.23;;;;;;;26.55;75.81;100162.75;4951209;29;20238;-76
2022/07/20 05:25:40;;;;;;;5.63;5.10;;;;;;;27.66;73.29;100155.69;4949414;28;20186;-76
2022/07/20 05:28:06;;;;;;;6.77;5.53;;;;;;;28.18;71.81;100154.09;4949811;28;20306;-76
2022/07/20 05:30:32;;;;;;;5.40;4.90;;;;;;;29.20;69.35;100164.72;4965865;28;20766;-76
2022/07/20 05:33:00;;;;;;;4.83;4.43;;;;;;;30.35;67.30;100172.94;4963610;28;20188;-77
2022/07/20 05:35:26;;;;;;;5.67;4.33;;;;;;;31.34;65.65;100161.81;4950775;28;20194;-76
2022/07/20 05:37:51;;;;;;;4.93;4.53;;;;;;;32.21;64.11;100160.16;4945609;28;20617;-76
2022/07/20 05:40:18;;;;;;;5.97;4.67;;;;;;;32.93;62.02;100163.53;4950670;29;20186;-77
2022/07/20 05:42:43;;;;;;;4.77;4.47;;;;;;;33.47;61.03;100160.47;4951257;28;20191;-76
2022/07/20 05:45:09;;;;;;;6.00;5.15;;;;;;;34.07;60.30;100160.31;4949252;28;20604;-76
2022/07/20 05:47:34;;;;;;;4.95;4.45;;;;;;;34.63;58.84;100166.53;4949442;28;20302;-77
2022/07/20 05:50:00;;;;;;;5.43;4.93;;;;;;;35.10;57.96;100163.97;4951052;28;20179;-77
2022/07/20 05:52:25;;;;;;;6.93;5.03;;;;;;;35.36;57.04;100170.84;4948818;28;20183;-77
2022/07/20 05:54:51;;;;;;;9.85;5.13;;;;;;;35.22;56.52;100165.22;4949230;28;20615;-76
2022/07/20 05:57:16;;;;;;;7.82;5.18;;;;;;;34.39;57.10;100163.91;4953245;28;20217;-76
2022/07/20 05:59:41;;;;;;;6.82;5.20;;;;;;;33.47;58.64;100165.03;4950067;28;20186;-77
2022/07/20 06:02:08;;;;;;;8.80;4.80;;;;;;;32.96;59.13;100176.63;4949838;28;20555;-76
2022/07/20 06:04:34;;;;;;;6.78;5.00;;;;;;;33.41;59.25;100178.09;4957402;28;20687;-76
2022/07/20 06:06:59;;;;;;;13.23;6.22;;;;;;;34.31;57.59;100184.41;4959094;28;20254;-77
2022/07/20 06:09:24;;;;;;;7.85;5.70;;;;;;;34.97;56.05;100183.38;4950630;28;20694;-77
2022/07/20 06:11:50;;;;;;;8.70;5.78;;;;;;;35.40;54.99;100194.50;4944608;28;20207;-76
2022/07/20 06:14:15;;;;;;;6.20;5.05;;;;;;;35.83;54.81;100182.44;4953512;28;20178;-77
2022/07/20 06:16:41;;;;;;;7.45;4.82;;;;;;;36.28;54.03;100177.97;4949151;28;20190;-77
2022/07/20 06:19:06;;;;;;;6.00;5.25;;;;;;;36.67;53.76;100184.13;4958852;28;20221;-76
2022/07/20 06:21:31;;;;;;;7.70;5.60;;;;;;;36.95;52.57;100191.53;4964114;28;20555;-77
2022/07/20 06:23:57;;;;;;;7.03;5.50;;;;;;;37.31;52.02;100190.66;4964626;28;20620;-77
2022/07/20 06:26:22;;;;;;;5.60;5.00;;;;;;;37.51;51.62;100201.66;4949497;29;20209;-78
2022/07/20 06:28:48;;;;;;;5.32;4.82;;;;;;;37.79;51.48;100194.63;4947408;28;20717;-77
2022/07/20 06:31:13;;;;;;;5.38;4.78;;;;;;;38.08;51.17;100203.59;4950619;28;20635;-76
2022/07/20 06:33:39;;;;;;;5.72;5.22;;;;;;;38.32;50.43;100193.38;4965386;28;20218;-77
2022/07/20 06:36:05;;;;;;;6.38;5.40;;;;;;;38.27;50.72;100200.19;4944570;28;20196;-77
2022/07/20 06:38:30;;;;;;;6.82;5.47;;;;;;;38.42;50.68;100202.78;4948526;28;20207;-77
2022/07/20 06:40:56;;;;;;;6.55;5.35;;;;;;;38.68;50.41;100206.69;4951314;29;20548;-77
2022/07/20 06:43:23;;;;;;;7.93;5.75;;;;;;;38.82;49.98;100213.00;4947004;28;20709;-78
2022/07/20 06:45:49;;;;;;;5.55;5.03;;;;;;;38.97;50.31;100212.84;4962825;28;20186;-78
2022/07/20 06:48:15;;;;;;;5.55;5.05;;;;;;;39.09;50.26;100217.66;4944856;28;20207;-76
2022/07/20 06:50:41;;;;;;;6.57;5.60;;;;;;;38.99;49.41;100218.03;4950606;28;20202;-77
2022/07/20 06:53:06;;;;;;;8.02;6.03;;;;;;;38.87;49.93;100215.94;4950162;28;20183;-77
2022/07/20 06:55:31;;;;;;;8.07;6.20;;;;;;;38.78;49.97;100222.53;4940878;28;20586;-77
2022/07/20 06:57:57;;;;;;;5.90;5.40;;;;;;;38.93;49.56;100213.47;4949490;28;20246;-77
2022/07/20 07:00:23;;;;;;;6.38;5.88;;;;;;;39.22;49.55;100216.88;4945242;28;20765;-78
2022/07/20 07:02:48;;;;;;;5.53;5.03;;;;;;;39.46;49.19;100218.19;4957778;28;20183;-76
2022/07/20 07:05:14;;;;;;;5.80;5.30;;;;;;;39.61;48.99;100220.69;4949606;29;20205;-77
2022/07/20 07:07:39;;;;;;;7.15;5.20;;;;;;;39.71;48.88;100215.69;4946921;28;20202;-77
2022/07/20 07:10:05;;;;;;;6.00;5.50;;;;;;;39.76;49.19;100218.63;4950135;28;20186;-76
2022/07/20 07:12:33;;;;;;;14.75;6.65;;;;;;;39.81;49.49;100220.72;4948774;28;20256;-77
2022/07/20 07:14:58;;;;;;;14.73;7.65;;;;;;;39.69;49.22;100222.34;4949864;28;20191;-76
2022/07/20 07:17:24;;;;;;;7.32;6.45;;;;;;;39.43;48.67;100224.00;4949420;28;20209;-76
2022/07/20 07:19:49;;;;;;;7.45;5.50;;;;;;;39.37;49.10;100225.69;4948774;28;20690;-76
2022/07/20 07:22:14;;;;;;;6.07;5.47;;;;;;;39.51;49.19;100228.41;4949320;28;20194;-76
2022/07/20 07:24:40;;;;;;;6.00;5.40;;;;;;;39.61;49.31;100237.78;4961308;28;20603;-76
2022/07/20 07:27:06;;;;;;;8.02;5.47;;;;;;;39.48;49.27;100235.06;4946751;28;20194;-77
2022/07/20 07:29:32;;;;;;;6.07;5.53;;;;;;;39.47;49.72;100231.50;4949501;28;20218;-76
2022/07/20 07:32:00;;;;;;;6.53;5.45;;;;;;;39.49;49.62;100228.59;4942630;28;20194;-77
2022/07/20 07:34:26;;;;;;;6.10;5.57;;;;;;;39.50;49.24;100224.84;4942630;28;20178;-77
2022/07/20 07:36:52;;;;;;;6.25;4.95;;;;;;;39.53;49.19;100223.63;4943062;29;20214;-77
2022/07/20 07:39:18;;;;;;;6.25;4.85;;;;;;;39.44;49.32;100223.78;4940214;29;20923;-77
2022/07/20 07:41:43;;;;;;;5.13;4.63;;;;;;;39.32;48.86;100226.28;4947923;28;20214;-76
2022/07/20 07:44:09;;;;;;;5.65;5.07;;;;;;;39.28;49.60;100224.16;4948183;28;20288;-77
2022/07/20 07:46:35;;;;;;;4.97;4.57;;;;;;;39.25;49.54;100228.13;4948329;29;20191;-76
2022/07/20 07:49:00;;;;;;;5.25;4.57;;;;;;;39.18;49.12;100227.25;4943682;28;20199;-77
2022/07/20 07:51:25;;;;;;;5.40;4.55;;;;;;;39.08;49.48;100234.94;4950099;28;20726;-77
2022/07/20 07:53:51;;;;;;;5.00;4.60;;;;;;;38.96;49.17;100232.81;4942294;28;20221;-76
2022/07/20 07:56:16;;;;;;;6.22;4.88;;;;;;;38.81;49.94;100229.41;4957380;28;20225;-77
2022/07/20 07:58:42;;;;;;;5.13;4.72;;;;;;;38.59;49.70;100229.50;4945747;28;20211;-77
2022/07/20 08:01:07;;;;;;;5.00;4.50;;;;;;;38.36;50.29;100236.03;4945346;28;20266;-76
2022/07/20 08:03:33;;;;;;;4.60;4.30;;;;;;;38.21;50.43;100235.28;4945055;28;20285;-75
2022/07/20 08:05:58;;;;;;;5.00;4.60;;;;;;;38.06;50.80;100238.94;4951271;28;20268;-76
2022/07/20 08:08:24;;;;;;;5.20;4.70;;;;;;;37.90;51.06;100242.72;4961645;28;20210;-75
2022/07/20 08:10:49;;;;;;;4.93;4.55;;;;;;;37.71;51.44;100238.00;4947068;28;20241;-78
2022/07/20 08:13:15;;;;;;;5.00;4.60;;;;;;;37.59;51.68;100240.38;4947802;28;20190;-76
2022/07/20 08:15:40;;;;;;;4.80;4.40;;;;;;;37.46;52.23;100236.50;4948151;29;20186;-77
2022/07/20 08:18:06;;;;;;;5.32;4.88;;;;;;;37.28;52.36;100236.06;4948316;28;20720;-77
2022/07/20 08:20:31;;;;;;;5.45;4.70;;;;;;;37.10;52.86;100237.31;4963340;28;20239;-76
2022/07/20 08:22:57;;;;;;;6.03;4.60;;;;;;;36.97;52.83;100248.81;4948691;28;20198;-75
2022/07/20 08:25:23;;;;;;;5.18;4.57;;;;;;;36.84;52.43;100245.91;4944401;28;20190;-76
2022/07/20 08:27:49;;;;;;;6.68;4.57;;;;;;;36.62;53.21;100248.53;4947341;28;20229;-74
2022/07/20 08:30:15;;;;;;;4.88;4.43;;;;;;;36.46;53.24;100245.00;4949055;28;20599;-77
2022/07/20 08:32:40;;;;;;;5.55;5.05;;;;;;;36.26;53.10;100254.59;4949364;28;20214;-76
2022/07/20 08:35:06;;;;;;;5.13;4.72;;;;;;;36.08;53.33;100252.25;4944128;28;20195;-76
2022/07/20 08:37:31;;;;;;;5.88;5.10;;;;;;;35.97;53.31;100257.06;4949156;28;20620;-75
2022/07/20 08:39:57;;;;;;;5.47;4.82;;;;;;;35.84;53.77;100259.50;4964020;28;20623;-76
2022/07/20 08:42:22;;;;;;;5.00;4.63;;;;;;;35.74;53.75;100265.13;4963278;28;20238;-76
2022/07/20 08:44:49;;;;;;;5.47;5.00;;;;;;;35.67;54.04;100264.16;4948620;28;20241;-76
2022/07/20 08:47:15;;;;;;;5.18;4.72;;;;;;;35.60;54.25;100255.97;4951437;28;20253;-76
2022/07/20 08:49:45;;;;;;;6.15;5.28;;;;;;;35.51;54.39;100260.56;4964091;28;20639;-76
2022/07/20 08:52:11;;;;;;;8.18;7.18;;;;;;;35.39;54.73;100259.28;4953423;28;20271;-77
2022/07/20 08:54:37;;;;;;;8.65;7.97;;;;;;;35.22;55.21;100264.75;4952643;28;20262;-76
2022/07/20 08:57:15;;;;;;;10.15;9.07;;;;;;;35.08;55.86;100258.28;4952273;28;20194;-76
2022/07/20 08:59:44;;;;;;;11.50;10.40;;;;;;;34.91;56.58;100262.84;4950366;28;20198;-76
2022/07/20 09:02:09;;;;;;;12.25;11.05;;;;;;;34.75;57.06;100258.38;4951936;28;20666;-77
2022/07/20 09:04:50;;;;;;;12.05;10.98;;;;;;;34.72;57.51;100255.19;4950486;28;20221;-78
2022/07/20 09:07:16;;;;;;;11.70;10.70;;;;;;;34.61;58.16;100254.53;4966531;28;20186;-78
2022/07/20 09:09:42;;;;;;;11.82;10.93;;;;;;;34.57;58.51;100252.38;4949840;28;20281;-77
2022/07/20 09:12:07;;;;;;;12.10;11.20;;;;;;;34.53;58.38;100249.22;4953223;28;20202;-75
2022/07/20 09:14:47;;;;;;;13.85;12.55;;;;;;;34.50;58.43;100257.59;4951052;28;20190;-76
2022/07/20 09:17:23;;;;;;;16.17;14.85;;;;;;;34.47;59.04;100261.47;4950192;28;20203;-76
2022/07/20 09:19:54;;;;;;;15.38;14.23;;;;;;;34.42;59.42;100252.22;4951622;28;20705;-76
2022/07/20 09:22:37;;;;;;;14.70;13.60;;;;;;;34.41;59.59;100255.94;4952730;28;20193;-76
2022/07/20 09:25:11;;;;;;;14.43;13.23;;;;;;;34.42;59.94;100253.09;4947593;29;20345;-76
2022/07/20 09:27:37;;;;;;;14.60;13.40;;;;;;;34.43;60.19;100265.50;4966088;28;20269;-75
2022/07/20 09:30:10;;;;;;;15.27;13.95;;;;;;;34.43;60.10;100256.59;4949943;29;20182;-77
2022/07/20 09:32:54;;;;;;;15.30;13.90;;;;;;;34.40;60.49;100256.94;4952121;28;20549;-75
2022/07/20 09:35:22;;;;;;;14.60;13.50;;;;;;;34.41;59.50;100263.97;4945722;29;20245;-76
2022/07/20 09:37:48;;;;;;;15.60;14.25;;;;;;;34.39;59.69;100256.06;4951256;28;20214;-78
2022/07/20 09:40:13;;;;;;;15.25;14.00;;;;;;;34.38;59.51;100261.63;4951330;28;20198;-76
2022/07/20 09:42:41;;;;;;;16.30;15.10;;;;;;;34.35;60.04;100252.91;4946361;28;20213;-75
2022/07/20 09:45:27;;;;;;;17.10;15.70;;;;;;;34.32;61.27;100250.56;4946479;28;20225;-76
2022/07/20 09:48:13;;;;;;;16.90;15.60;;;;;;;34.40;60.98;100255.06;4948848;28;20577;-76
2022/07/20 09:50:43;;;;;;;17.15;15.55;;;;;;;34.46;60.26;100257.13;4951352;28;20194;-76
2022/07/20 09:53:10;;;;;;;16.98;15.23;;;;;;;34.40;60.37;100254.25;4941813;28;20191;-75
2022/07/20 09:55:37;;;;;;;15.65;14.35;;;;;;;34.42;60.98;100260.28;4952301;28;20214;-76
2022/07/20 09:58:03;;;;;;;16.25;14.90;;;;;;;34.45;60.62;100255.44;4948269;28;20211;-76
2022/07/20 10:00:30;;;;;;;16.55;15.25;;;;;;;34.45;60.72;100255.44;4951558;28;20198;-76
2022/07/20 10:02:57;;;;;;;15.23;14.13;;;;;;;34.42;60.92;100261.16;4943276;28;20647;-76
2022/07/20 10:05:23;;;;;;;16.40;15.20;;;;;;;34.48;61.54;100256.94;4949449;28;20891;-77
2022/07/20 10:07:50;;;;;;;17.17;15.80;;;;;;;34.56;60.67;100256.06;4950006;28;20250;-76
2022/07/20 10:10:16;;;;;;;17.42;15.88;;;;;;;34.56;60.70;100248.00;4942882;29;20221;-77
2022/07/20 10:12:42;;;;;;;16.33;15.13;;;;;;;34.60;61.16;100250.19;4949991;28;20198;-75
2022/07/20 10:15:23;;;;;;;15.80;14.65;;;;;;;34.67;61.07;100252.19;4948183;29;20202;-76
2022/07/20 10:17:48;;;;;;;16.77;15.07;;;;;;;34.73;61.32;100254.16;4947020;28;20269;-76
2022/07/20 10:20:35;;;;;;;16.83;15.48;;;;;;;34.77;61.76;100252.81;4952359;28;20187;-76
2022/07/20 10:23:15;;;;;;;16.58;15.38;;;;;;;34.85;61.75;100260.00;4946278;28;20178;-76
2022/07/20 10:25:45;;;;;;;16.17;14.98;;;;;;;34.95;61.86;100257.97;4944956;28;20183;-76
2022/07/20 10:28:23;;;;;;;15.95;14.68;;;;;;;35.03;62.01;100262.47;4943138;28;20210;-76
2022/07/20 10:30:57;;;;;;;24.05;16.23;;;;;;;35.11;61.81;100265.16;4947439;29;20183;-77
2022/07/20 10:33:24;;;;;;;18.35;16.63;;;;;;;35.23;60.19;100262.91;4958983;28;20477;-76
2022/07/20 10:35:50;;;;;;;16.63;15.23;;;;;;;35.29;59.39;100264.88;4947180;29;20249;-76
2022/07/20 10:38:20;;;;;;;16.02;14.80;;;;;;;35.32;59.44;100261.00;4950137;28;20206;-76
2022/07/20 10:44:19;;;;;;;15.82;14.63;;;;;;;35.47;59.44;100261.09;4942147;29;20256;-76
2022/07/20 10:46:45;;;;;;;16.08;14.88;;;;;;;35.49;59.64;100259.91;4950474;28;20179;-77
2022/07/20 10:49:10;;;;;;;16.55;15.23;;;;;;;35.55;60.10;100266.41;4949131;28;20293;-76
2022/07/20 10:51:36;;;;;;;16.88;15.48;;;;;;;35.58;60.16;100270.63;4949326;29;20191;-76
2022/07/20 10:54:33;;;;;;;16.88;15.48;;;;;;;35.59;60.71;100275.00;4948372;28;20214;-78
2022/07/20 10:56:59;;;;;;;15.50;14.30;;;;;;;35.51;59.93;100281.28;4950153;28;20214;-76
2022/07/20 10:59:25;;;;;;;14.93;13.93;;;;;;;35.45;60.09;100277.44;4949363;28;20269;-75
2022/07/20 11:01:50;;;;;;;14.63;13.52;;;;;;;35.46;60.08;100279.13;4947199;28;20537;-76
2022/07/20 11:04:17;;;;;;;15.93;14.45;;;;;;;35.56;59.44;100292.31;4943944;28;20214;-79
2022/07/20 11:06:42;;;;;;;15.82;14.77;;;;;;;35.55;59.67;100287.94;4949093;29;20215;-78
2022/07/20 11:09:08;;;;;;;15.23;14.07;;;;;;;35.54;59.53;100284.44;4947745;28;20237;-76
2022/07/20 11:11:36;;;;;;;15.57;14.32;;;;;;;35.51;59.68;100275.88;4948898;28;20780;-75
2022/07/20 11:14:04;;;;;;;14.70;13.38;;;;;;;35.50;59.86;100271.53;4945640;28;20182;-76
2022/07/20 11:16:31;;;;;;;16.17;14.80;;;;;;;35.52;59.71;100274.88;4944516;28;20187;-76
2022/07/20 11:18:59;;;;;;;15.63;14.25;;;;;;;35.54;60.02;100270.97;4963493;28;20293;-78
2022/07/20 11:21:35;;;;;;;14.50;13.40;;;;;;;35.40;60.36;100263.66;4944213;28;20841;-76
2022/07/20 11:24:01;;;;;;;14.95;13.70;;;;;;;35.16;60.34;100270.84;4945734;28;20261;-76
2022/07/20 11:26:27;;;;;;;15.05;13.73;;;;;;;35.00;60.08;100279.81;4950213;28;20198;-74